Time;durP1;ratioP1;P1;durP2;ratioP2;P2;SDS_P1;SDS_P2;PMS_P1;PMS_P2;Temp;Humidity;BMP_temperature;BMP_pressure;BME280_temperature;BME280_humidity;BME280_pressure;Samples;Min_cycle;Max_cycle;Signal;HPM_P1;HPM_P2
2023/10/25 00:02:15;;;;;;;;;;;14.20;73.70;;;;;;5111156;28;20083;-70
2023/10/25 00:04:40;;;;;;;;;;;14.20;73.70;;;;;;5111453;28;20495;-70
2023/10/25 00:07:06;;;;;;;;;;;14.20;73.70;;;;;;5111168;28;20421;-70
2023/10/25 00:09:32;;;;;;;;;;;14.20;73.70;;;;;;5111293;28;19920;-70
2023/10/25 00:11:57;;;;;;;;;;;14.20;73.70;;;;;;5111054;28;19926;-70
2023/10/25 00:14:22;;;;;;;;;;;14.20;73.70;;;;;;5110983;28;19927;-70
2023/10/25 00:16:48;;;;;;;;;;;14.20;73.70;;;;;;5110777;28;20295;-70
2023/10/25 00:19:13;;;;;;;;;;;14.20;73.70;;;;;;5111173;28;19920;-70
2023/10/25 00:21:39;;;;;;;;;;;14.20;73.70;;;;;;5110981;28;20359;-70
2023/10/25 00:24:05;;;;;;;;;;;14.10;73.60;;;;;;5112422;28;19923;-69
2023/10/25 00:26:30;;;;;;;;;;;14.10;73.60;;;;;;5114621;28;20368;-69
2023/10/25 00:28:58;;;;;;;;;;;14.10;73.60;;;;;;5114596;28;19924;-70
2023/10/25 00:31:24;;;;;;;;;;;14.20;73.70;;;;;;5114865;28;19920;-70
2023/10/25 00:33:49;;;;;;;;;;;14.20;73.70;;;;;;5114863;28;19986;-70
2023/10/25 00:36:15;;;;;;;;;;;14.10;73.60;;;;;;5114615;28;19924;-70
2023/10/25 00:38:41;;;;;;;;;;;14.20;73.60;;;;;;5114685;28;19920;-70
2023/10/25 00:41:06;;;;;;;;;;;14.10;73.60;;;;;;5114498;28;19976;-70
2023/10/25 00:43:32;;;;;;;;;;;14.10;73.60;;;;;;5114361;28;19942;-69
2023/10/25 00:48:41;;;;;;;;;;;14.10;73.60;;;;;;5110307;27;19913;-70
2023/10/25 00:51:08;;;;;;;;;;;14.10;73.50;;;;;;5109111;28;19920;-70
2023/10/25 00:53:36;;;;;;;;;;;14.10;73.60;;;;;;5110101;28;19982;-70
2023/10/25 00:56:01;;;;;;;;;;;14.10;73.50;;;;;;5108843;28;19920;-70
2023/10/25 00:58:28;;;;;;;;;;;14.10;73.50;;;;;;5108830;28;19974;-71
2023/10/25 01:00:55;;;;;;;;;;;14.10;73.50;;;;;;5109106;28;19928;-70
2023/10/25 01:03:20;;;;;;;;;;;14.10;73.60;;;;;;5108686;28;20007;-70
2023/10/25 01:05:47;;;;;;;;;;;14.10;73.60;;;;;;5108561;28;19959;-71
2023/10/25 01:08:16;;;;;;;;;;;14.10;73.50;;;;;;5108523;28;19931;-71
2023/10/25 01:10:41;;;;;;;;;;;14.10;73.60;;;;;;5108817;28;19920;-70
2023/10/25 01:13:07;;;;;;;;;;;14.10;73.50;;;;;;5108572;28;19943;-70
2023/10/25 01:15:32;;;;;;;;;;;14.10;73.50;;;;;;5108431;28;19920;-70
2023/10/25 01:17:58;;;;;;;;;;;14.10;73.50;;;;;;5108652;28;20062;-71
2023/10/25 01:20:23;;;;;;;;;;;14.10;73.50;;;;;;5108716;28;20375;-71
2023/10/25 01:22:49;;;;;;;;;;;14.10;73.50;;;;;;5108598;28;19927;-70
2023/10/25 01:25:14;;;;;;;;;;;14.10;73.50;;;;;;5109497;28;20393;-70
2023/10/25 01:27:40;;;;;;;;;;;14.10;73.50;;;;;;5108075;28;19924;-71
2023/10/25 01:30:06;;;;;;;;;;;14.10;73.50;;;;;;5108523;28;19920;-70
2023/10/25 01:32:31;;;;;;;;;;;14.10;73.50;;;;;;5108404;28;20367;-71
2023/10/25 01:34:57;;;;;;;;;;;14.00;73.50;;;;;;5108453;28;19924;-71
2023/10/25 01:37:22;;;;;;;;;;;14.10;73.50;;;;;;5108336;28;20422;-71
2023/10/25 01:39:48;;;;;;;;;;;14.10;73.50;;;;;;5109235;28;19920;-70
2023/10/25 01:42:14;;;;;;;;;;;14.10;73.50;;;;;;5107862;28;20029;-70
2023/10/25 01:44:39;;;;;;;;;;;14.10;73.40;;;;;;5107932;28;20015;-71
2023/10/25 01:47:05;;;;;;;;;;;14.00;73.40;;;;;;5107737;28;20040;-70
2023/10/25 01:49:30;;;;;;;;;;;14.00;73.40;;;;;;5108241;28;19924;-70
2023/10/25 01:51:57;;;;;;;;;;;14.00;73.40;;;;;;5142320;27;19976;-70
2023/10/25 01:54:23;;;;;;;;;;;14.00;73.40;;;;;;5107966;28;20360;-70
2023/10/25 01:56:49;;;;;;;;;;;14.10;73.40;;;;;;5107665;28;19973;-70
2023/10/25 01:59:14;;;;;;;;;;;14.00;73.30;;;;;;5081232;28;19927;-70
2023/10/25 02:01:40;;;;;;;;;;;14.00;73.30;;;;;;5094071;28;20030;-70
2023/10/25 02:04:05;;;;;;;;;;;14.00;73.30;;;;;;5095182;28;19920;-70
2023/10/25 02:06:30;;;;;;;;;;;14.00;73.30;;;;;;5128230;27;19928;-70
2023/10/25 02:08:56;;;;;;;;;;;14.00;73.30;;;;;;5128275;27;20379;-70
2023/10/25 02:11:22;;;;;;;;;;;14.00;73.30;;;;;;5127978;27;19927;-70
2023/10/25 02:13:47;;;;;;;;;;;14.10;73.40;;;;;;5093798;28;19920;-70
2023/10/25 02:16:14;;;;;;;;;;;14.00;73.30;;;;;;5094100;28;20106;-70
2023/10/25 02:18:39;;;;;;;;;;;14.00;73.30;;;;;;5094877;28;19927;-70
2023/10/25 02:21:05;;;;;;;;;;;14.00;73.30;;;;;;5095054;28;19920;-70
2023/10/25 02:23:30;;;;;;;;;;;14.00;73.30;;;;;;5093665;28;19931;-71
2023/10/25 02:25:56;;;;;;;;;;;14.00;74.00;;;;;;5093838;28;20007;-70
2023/10/25 02:28:21;;;;;;;;;;;14.00;73.30;;;;;;5094653;28;20023;-70
2023/10/25 02:30:47;;;;;;;;;;;14.00;73.20;;;;;;5093488;28;19920;-70
2023/10/25 02:33:12;;;;;;;;;;;14.00;73.30;;;;;;5093724;28;19966;-70
2023/10/25 02:35:38;;;;;;;;;;;14.00;73.20;;;;;;5094726;28;19927;-70
2023/10/25 02:38:04;;;;;;;;;;;14.00;73.20;;;;;;5094690;28;19927;-70
2023/10/25 02:40:30;;;;;;;;;;;14.00;73.30;;;;;;5093195;28;19950;-70
2023/10/25 02:42:55;;;;;;;;;;;14.00;73.20;;;;;;5093234;28;19920;-70
2023/10/25 02:45:21;;;;;;;;;;;14.00;73.20;;;;;;5094441;28;19949;-70
2023/10/25 02:47:46;;;;;;;;;;;14.00;73.20;;;;;;5092879;28;19924;-70
2023/10/25 02:50:12;;;;;;;;;;;14.00;73.20;;;;;;5093047;28;19920;-70
2023/10/25 02:52:37;;;;;;;;;;;14.00;73.20;;;;;;5092987;28;19920;-70
2023/10/25 02:55:03;;;;;;;;;;;14.00;73.20;;;;;;5093291;28;19924;-70
2023/10/25 02:57:28;;;;;;;;;;;14.00;73.20;;;;;;5092898;28;19958;-70
2023/10/25 02:59:54;;;;;;;;;;;14.00;73.20;;;;;;5093115;28;19920;-70
2023/10/25 03:02:19;;;;;;;;;;;14.00;73.20;;;;;;5093240;28;19927;-70
2023/10/25 03:04:45;;;;;;;;;;;13.90;73.10;;;;;;5093035;28;19946;-70
2023/10/25 03:07:10;;;;;;;;;;;14.00;73.20;;;;;;5094039;28;20339;-70
2023/10/25 03:09:36;;;;;;;;;;;13.90;73.10;;;;;;5093615;28;19923;-70
2023/10/25 03:12:02;;;;;;;;;;;13.90;73.10;;;;;;5093495;28;19920;-70
2023/10/25 03:14:28;;;;;;;;;;;13.90;73.10;;;;;;5092532;28;19928;-70
2023/10/25 03:16:53;;;;;;;;;;;13.90;73.10;;;;;;5092793;28;19920;-71
2023/10/25 03:19:19;;;;;;;;;;;13.90;73.10;;;;;;5092612;28;19920;-71
2023/10/25 03:21:44;;;;;;;;;;;13.90;73.10;;;;;;5092452;28;19952;-70
2023/10/25 03:24:09;;;;;;;;;;;13.90;73.10;;;;;;5126919;27;19989;-70
2023/10/25 03:26:35;;;;;;;;;;;13.90;73.10;;;;;;5092266;28;19931;-70
2023/10/25 03:29:00;;;;;;;;;;;13.90;73.10;;;;;;5093536;28;19924;-70
2023/10/25 03:31:26;;;;;;;;;;;13.90;73.10;;;;;;5093563;28;19924;-70
2023/10/25 03:33:51;;;;;;;;;;;13.90;73.10;;;;;;5092402;28;19920;-70
2023/10/25 03:36:17;;;;;;;;;;;13.90;73.10;;;;;;5093490;28;20003;-70
2023/10/25 03:38:42;;;;;;;;;;;13.90;73.10;;;;;;5092520;28;19920;-69
2023/10/25 03:41:08;;;;;;;;;;;13.90;73.10;;;;;;5092355;28;19927;-70
2023/10/25 03:43:34;;;;;;;;;;;13.90;73.10;;;;;;5126163;27;20363;-69
2023/10/25 03:46:03;;;;;;;;;;;13.90;73.10;;;;;;5091981;28;19946;-69
2023/10/25 03:48:29;;;;;;;;;;;13.90;73.10;;;;;;5112474;28;19924;-70
2023/10/25 03:50:54;;;;;;;;;;;13.90;73.00;;;;;;5113466;28;19920;-70
2023/10/25 03:53:20;;;;;;;;;;;13.90;73.00;;;;;;5095306;28;19923;-70
2023/10/25 03:55:53;;;;;;;;;;;13.90;73.10;;;;;;5129326;27;19955;-69
2023/10/25 03:58:19;;;;;;;;;;;13.90;73.00;;;;;;5095412;28;19927;-70
2023/10/25 04:00:45;;;;;;;;;;;13.90;73.00;;;;;;5095507;28;19924;-70
2023/10/25 04:03:10;;;;;;;;;;;13.90;73.00;;;;;;5095032;28;20284;-70
2023/10/25 04:05:38;;;;;;;;;;;13.90;73.00;;;;;;5113354;28;19971;-70
2023/10/25 04:08:04;;;;;;;;;;;13.80;73.00;;;;;;5129105;27;20318;-70
2023/10/25 04:10:30;;;;;;;;;;;13.90;73.00;;;;;;5129177;27;19919;-70
2023/10/25 04:12:55;;;;;;;;;;;13.90;73.00;;;;;;5095474;28;20026;-70
2023/10/25 04:15:21;;;;;;;;;;;13.90;73.00;;;;;;5095206;28;20449;-70
2023/10/25 04:17:46;;;;;;;;;;;13.80;73.00;;;;;;5113190;28;19920;-70
2023/10/25 04:20:11;;;;;;;;;;;13.80;73.00;;;;;;5095177;28;20330;-70
2023/10/25 04:22:37;;;;;;;;;;;13.90;73.00;;;;;;5094960;28;19934;-70
2023/10/25 04:25:03;;;;;;;;;;;13.90;73.00;;;;;;5094818;28;19958;-69
2023/10/25 04:27:29;;;;;;;;;;;13.80;72.90;;;;;;5094745;28;19923;-70
2023/10/25 04:29:55;;;;;;;;;;;13.80;73.00;;;;;;5094901;28;20393;-70
2023/10/25 04:32:20;;;;;;;;;;;13.80;72.90;;;;;;5094711;28;19955;-70
2023/10/25 04:34:46;;;;;;;;;;;13.90;72.90;;;;;;5094952;28;20014;-70
2023/10/25 04:37:13;;;;;;;;;;;13.80;72.90;;;;;;5112922;28;19927;-70
2023/10/25 04:39:39;;;;;;;;;;;13.80;72.90;;;;;;5112835;28;19927;-70
2023/10/25 04:42:05;;;;;;;;;;;13.80;72.90;;;;;;5094941;28;19920;-70
2023/10/25 04:44:31;;;;;;;;;;;13.80;72.80;;;;;;5094397;28;19930;-70
2023/10/25 04:46:57;;;;;;;;;;;13.80;72.80;;;;;;5094162;28;20363;-70
2023/10/25 04:49:22;;;;;;;;;;;13.80;72.80;;;;;;5094416;28;19920;-70
2023/10/25 04:51:48;;;;;;;;;;;13.80;72.80;;;;;;5094393;28;19919;-70
2023/10/25 04:54:13;;;;;;;;;;;13.80;72.80;;;;;;5094370;28;19945;-70
2023/10/25 04:56:39;;;;;;;;;;;13.80;72.80;;;;;;5094760;28;20298;-70
2023/10/25 04:59:04;;;;;;;;;;;13.80;72.80;;;;;;5094280;28;19981;-70
2023/10/25 05:01:30;;;;;;;;;;;13.80;72.80;;;;;;5094655;28;20018;-70
2023/10/25 05:03:55;;;;;;;;;;;13.80;72.90;;;;;;5094323;28;20382;-70
2023/10/25 05:06:21;;;;;;;;;;;13.80;72.80;;;;;;5094536;28;19920;-70
2023/10/25 05:08:46;;;;;;;;;;;13.80;72.80;;;;;;5094530;28;20294;-70
2023/10/25 05:11:14;;;;;;;;;;;13.80;72.80;;;;;;5094270;28;19920;-70
2023/10/25 05:13:40;;;;;;;;;;;13.80;72.70;;;;;;5094535;28;19920;-70
2023/10/25 05:16:06;;;;;;;;;;;13.80;72.70;;;;;;5094226;28;20018;-70
2023/10/25 05:18:31;;;;;;;;;;;13.80;72.70;;;;;;5094078;28;19977;-71
2023/10/25 05:20:59;;;;;;;;;;;13.80;73.50;;;;;;5128627;28;19924;-71
2023/10/25 05:23:28;;;;;;;;;;;13.80;72.70;;;;;;5112439;28;19928;-71
2023/10/25 05:25:54;;;;;;;;;;;13.80;72.70;;;;;;5112450;28;19920;-70
2023/10/25 05:28:20;;;;;;;;;;;13.70;72.70;;;;;;5112341;28;19924;-70
2023/10/25 05:30:48;;;;;;;;;;;13.80;72.70;;;;;;5128145;28;19920;-71
2023/10/25 05:33:16;;;;;;;;;;;13.80;73.50;;;;;;5094381;28;19931;-70
2023/10/25 05:35:41;;;;;;;;;;;13.70;72.70;;;;;;5098194;28;20030;-70
2023/10/25 05:38:07;;;;;;;;;;;13.70;72.70;;;;;;5116254;28;20434;-70
2023/10/25 05:40:32;;;;;;;;;;;13.70;72.60;;;;;;5116021;28;19920;-70
2023/10/25 05:42:58;;;;;;;;;;;13.70;72.60;;;;;;5098156;28;20026;-70
2023/10/25 05:45:24;;;;;;;;;;;13.70;72.60;;;;;;5097981;28;19924;-71
2023/10/25 05:47:50;;;;;;;;;;;13.80;72.60;;;;;;5128238;27;19928;-70
2023/10/25 05:50:15;;;;;;;;;;;13.80;72.60;;;;;;5095449;28;19954;-71
2023/10/25 05:52:44;;;;;;;;;;;13.70;72.60;;;;;;5094214;28;20307;-70
2023/10/25 05:55:11;;;;;;;;;;;13.70;72.50;;;;;;5095709;28;20390;-70
2023/10/25 05:57:36;;;;;;;;;;;13.70;72.50;;;;;;5094654;28;20279;-70
2023/10/25 06:00:02;;;;;;;;;;;13.70;72.50;;;;;;5094360;28;19920;-71
2023/10/25 06:02:28;;;;;;;;;;;13.70;72.50;;;;;;5094092;28;19927;-70
2023/10/25 06:04:55;;;;;;;;;;;13.70;72.50;;;;;;5094074;28;19928;-70
2023/10/25 06:07:20;;;;;;;;;;;13.70;72.60;;;;;;5093876;28;19928;-70
2023/10/25 06:09:46;;;;;;;;;;;13.70;72.50;;;;;;5095233;28;19989;-70
2023/10/25 06:12:12;;;;;;;;;;;13.70;72.50;;;;;;5093817;28;19920;-70
2023/10/25 06:14:37;;;;;;;;;;;13.70;72.50;;;;;;5093858;28;20298;-70
2023/10/25 06:17:03;;;;;;;;;;;13.70;72.50;;;;;;5127715;27;19982;-70
2023/10/25 06:19:28;;;;;;;;;;;13.70;72.50;;;;;;5095044;28;19920;-70
2023/10/25 06:21:54;;;;;;;;;;;13.70;72.50;;;;;;5093971;28;19967;-70
2023/10/25 06:24:20;;;;;;;;;;;13.70;72.40;;;;;;5076837;28;19959;-70
2023/10/25 06:26:46;;;;;;;;;;;13.70;72.40;;;;;;5093732;28;20003;-69
2023/10/25 06:29:12;;;;;;;;;;;13.70;72.40;;;;;;5093584;28;19920;-70
2023/10/25 06:31:37;;;;;;;;;;;13.70;72.40;;;;;;5093936;28;19920;-70
2023/10/25 06:34:03;;;;;;;;;;;13.70;72.40;;;;;;5093522;28;19927;-70
2023/10/25 06:36:30;;;;;;;;;;;13.70;72.40;;;;;;5093389;28;19920;-70
2023/10/25 06:38:56;;;;;;;;;;;13.70;72.40;;;;;;5093448;28;19927;-69
2023/10/25 06:41:23;;;;;;;;;;;13.70;72.40;;;;;;5093579;28;19919;-69
2023/10/25 06:43:49;;;;;;;;;;;13.70;72.40;;;;;;5094599;28;19920;-69
2023/10/25 06:46:14;;;;;;;;;;;13.70;72.40;;;;;;5093798;28;19920;-69
2023/10/25 06:48:40;;;;;;;;;;;13.70;72.30;;;;;;5114897;28;20066;-69
2023/10/25 06:51:06;;;;;;;;;;;13.70;72.30;;;;;;5115133;28;19920;-70
2023/10/25 06:53:32;;;;;;;;;;;13.70;72.30;;;;;;5096719;28;19924;-70
2023/10/25 06:55:58;;;;;;;;;;;13.60;72.30;;;;;;5114909;28;19919;-70
2023/10/25 06:58:24;;;;;;;;;;;13.60;72.30;;;;;;5114651;28;19942;-70
2023/10/25 07:00:50;;;;;;;;;;;13.60;72.20;;;;;;5096623;28;19926;-70
2023/10/25 07:03:17;;;;;;;;;;;13.70;72.30;;;;;;5114434;28;19920;-70
2023/10/25 07:05:44;;;;;;;;;;;13.70;72.30;;;;;;5114740;28;19959;-70
2023/10/25 07:08:10;;;;;;;;;;;13.60;72.30;;;;;;5096084;28;19971;-70
2023/10/25 07:10:35;;;;;;;;;;;13.70;72.30;;;;;;5096519;28;19973;-70
2023/10/25 07:13:01;;;;;;;;;;;13.60;72.20;;;;;;5114675;28;19924;-70
2023/10/25 07:15:26;;;;;;;;;;;13.70;72.20;;;;;;5096031;28;19928;-69
2023/10/25 07:17:52;;;;;;;;;;;13.70;72.20;;;;;;5096048;28;19969;-70
2023/10/25 07:20:18;;;;;;;;;;;13.60;72.20;;;;;;5096027;28;20321;-70
2023/10/25 07:22:43;;;;;;;;;;;13.70;72.20;;;;;;5129999;27;19927;-70
2023/10/25 07:25:09;;;;;;;;;;;13.60;72.10;;;;;;5096272;28;19920;-69
2023/10/25 07:27:37;;;;;;;;;;;13.60;72.10;;;;;;5114015;28;20018;-70
2023/10/25 07:30:03;;;;;;;;;;;13.60;72.10;;;;;;5095698;28;19919;-70
2023/10/25 07:32:30;;;;;;;;;;;13.70;72.10;;;;;;5113955;28;19934;-70
2023/10/25 07:34:56;;;;;;;;;;;13.60;72.10;;;;;;5095949;28;20028;-70
2023/10/25 07:37:21;;;;;;;;;;;13.60;72.10;;;;;;5090692;28;20617;-70
2023/10/25 07:39:47;;;;;;;;;;;13.70;72.10;;;;;;5102070;28;19919;-70
2023/10/25 07:42:12;;;;;;;;;;;13.60;72.00;;;;;;5090480;28;19920;-69
2023/10/25 07:44:38;;;;;;;;;;;13.60;72.00;;;;;;5106263;28;19926;-70
2023/10/25 07:47:04;;;;;;;;;;;13.60;72.00;;;;;;5111526;28;20124;-70
2023/10/25 07:49:33;;;;;;;;;;;13.60;72.00;;;;;;5095547;28;20308;-70
2023/10/25 07:51:58;;;;;;;;;;;13.60;72.00;;;;;;5122512;27;19974;-70
2023/10/25 07:54:24;;;;;;;;;;;13.60;72.00;;;;;;5094167;28;19928;-70
2023/10/25 07:56:50;;;;;;;;;;;13.70;72.00;;;;;;5090466;28;19991;-70
2023/10/25 07:59:15;;;;;;;;;;;13.70;72.00;;;;;;5121997;27;19927;-69
2023/10/25 08:01:41;;;;;;;;;;;13.60;72.00;;;;;;5085827;28;20347;-70
2023/10/25 08:04:06;;;;;;;;;;;13.70;72.00;;;;;;5092796;28;19920;-69
2023/10/25 08:06:32;;;;;;;;;;;13.70;72.00;;;;;;5095000;28;20042;-70
2023/10/25 08:08:58;;;;;;;;;;;13.70;72.00;;;;;;5089796;28;19971;-70
2023/10/25 08:11:23;;;;;;;;;;;13.70;72.00;;;;;;5104267;28;20375;-70
2023/10/25 08:13:52;;;;;;;;;;;13.70;72.00;;;;;;5095358;28;19919;-70
2023/10/25 08:16:17;;;;;;;;;;;13.70;72.00;;;;;;5091934;28;19923;-70
2023/10/25 08:18:43;;;;;;;;;;;13.70;72.00;;;;;;5092495;28;19920;-70
2023/10/25 08:21:12;;;;;;;;;;;13.70;71.90;;;;;;5094233;28;19920;-70
2023/10/25 08:23:38;;;;;;;;;;;13.70;72.00;;;;;;5112648;28;20463;-69
2023/10/25 08:26:04;;;;;;;;;;;13.70;72.00;;;;;;5111818;28;19920;-70
2023/10/25 08:28:29;;;;;;;;;;;13.70;72.00;;;;;;5100948;28;20378;-69
2023/10/25 08:30:55;;;;;;;;;;;13.70;72.00;;;;;;5080228;28;19920;-70
2023/10/25 08:33:20;;;;;;;;;;;13.70;72.00;;;;;;5117756;27;19923;-70
2023/10/25 08:35:46;;;;;;;;;;;13.70;72.00;;;;;;5083165;28;20299;-70
2023/10/25 08:38:11;;;;;;;;;;;13.70;71.90;;;;;;5079082;28;20206;-70
2023/10/25 08:40:40;;;;;;;;;;;13.70;71.90;;;;;;5078772;28;19920;-70
2023/10/25 08:43:07;;;;;;;;;;;13.70;71.90;;;;;;5100713;28;20010;-69
2023/10/25 08:45:34;;;;;;;;;;;13.70;71.90;;;;;;5112835;28;19935;-74
2023/10/25 08:48:04;;;;;;;;;;;13.70;71.90;;;;;;5081884;28;19924;-79
2023/10/25 08:50:31;;;;;;;;;;;13.70;72.00;;;;;;5093323;28;19984;-75
2023/10/25 08:52:57;;;;;;;;;;;13.80;72.30;;;;;;5093623;28;20409;-80
2023/10/25 08:55:23;;;;;;;;;;;13.90;72.50;;;;;;5088954;28;19920;-79
2023/10/25 08:57:54;;;;;;;;;;;13.90;72.50;;;;;;5090357;28;19939;-74
2023/10/25 09:00:20;;;;;;;;;;;13.90;72.50;;;;;;5093877;28;19965;-78
2023/10/25 09:02:46;;;;;;;;;;;14.00;72.60;;;;;;5111879;28;19919;-75
2023/10/25 09:05:11;;;;;;;;;;;14.00;72.70;;;;;;5110699;28;19954;-76
2023/10/25 09:07:37;;;;;;;;;;;14.20;73.00;;;;;;5089677;28;20336;-78
2023/10/25 09:10:03;;;;;;;;;;;14.90;71.90;;;;;;5096075;28;19927;-75
2023/10/25 09:12:29;;;;;;;;;;;15.60;70.20;;;;;;5096363;28;19920;-74
2023/10/25 09:14:55;;;;;;;;;;;16.40;68.00;;;;;;5096703;28;19973;-81
2023/10/25 09:17:20;;;;;;;;;;;17.50;65.20;;;;;;5096852;28;19924;-76
2023/10/25 09:19:47;;;;;;;;;;;18.60;62.20;;;;;;5096116;28;19943;-77
2023/10/25 09:22:29;;;;;;;;;;;19.60;59.60;;;;;;5095864;28;19923;-77
2023/10/25 09:24:55;;;;;;;;;;;20.40;57.40;;;;;;5096711;28;19926;-75
2023/10/25 09:27:22;;;;;;;;;;;21.10;55.30;;;;;;5097484;28;19927;-78
2023/10/25 09:29:48;;;;;;;;;;;21.70;53.80;;;;;;5097268;28;19920;-80
2023/10/25 09:32:13;;;;;;;;;;;22.10;52.70;;;;;;5096444;28;19920;-75
2023/10/25 09:34:39;;;;;;;;;;;22.30;52.10;;;;;;5097322;28;20314;-76
2023/10/25 09:37:06;;;;;;;;;;;22.50;51.40;;;;;;5111411;28;19920;-78
2023/10/25 09:39:32;;;;;;;;;;;22.60;51.00;;;;;;5097160;28;19945;-76
2023/10/25 09:42:01;;;;;;;;;;;22.70;51.00;;;;;;5117348;27;20014;-77
2023/10/25 09:44:31;;;;;;;;;;;22.70;50.90;;;;;;5110539;28;19920;-73
2023/10/25 09:46:58;;;;;;;;;;;22.80;50.80;;;;;;5118854;27;19923;-70
2023/10/25 09:49:28;;;;;;;;;;;22.90;50.40;;;;;;5096507;28;19923;-72
2023/10/25 09:54:47;;;;;;;;;;;23.10;50.10;;;;;;5112255;27;19916;-77
2023/10/25 09:57:13;;;;;;;;;;;23.00;49.80;;;;;;5108018;28;20279;-78
2023/10/25 09:59:40;;;;;;;;;;;23.00;50.10;;;;;;5108005;28;20003;-72
2023/10/25 10:02:08;;;;;;;;;;;22.80;50.40;;;;;;5107809;28;19926;-74
2023/10/25 10:12:39;;;;;;;;;;;22.30;51.60;;;;;;5110080;27;19922;-76
2023/10/25 10:15:04;;;;;;;;;;;22.10;52.00;;;;;;5115499;28;19919;-71
2023/10/25 10:17:34;;;;;;;;;;;22.00;52.20;;;;;;5101955;28;20561;-74
2023/10/25 10:20:03;;;;;;;;;;;21.80;52.40;;;;;;5107117;28;20011;-74
2023/10/25 10:22:28;;;;;;;;;;;21.60;52.80;;;;;;5112223;28;19920;-75
2023/10/25 10:24:57;;;;;;;;;;;21.40;53.20;;;;;;5107169;28;19927;-74
2023/10/25 10:27:26;;;;;;;;;;;21.20;53.90;;;;;;5107952;28;19967;-70
2023/10/25 10:29:52;;;;;;;;;;;20.90;54.50;;;;;;5108375;28;19963;-70
2023/10/25 10:32:17;;;;;;;;;;;20.70;55.20;;;;;;5108582;28;20421;-71
2023/10/25 10:37:29;;;;;;;;;;;20.40;55.90;;;;;;5103770;27;19934;-71
2023/10/25 10:42:36;;;;;;;;;;;20.20;56.50;;;;;;5110484;27;19915;-71
2023/10/25 10:45:02;;;;;;;;;;;20.10;56.70;;;;;;5108462;28;20278;-71
2023/10/25 10:47:31;;;;;;;;;;;20.00;56.90;;;;;;5130001;27;19916;-71
2023/10/25 10:49:58;;;;;;;;;;;19.90;57.10;;;;;;5101052;28;20275;-70
2023/10/25 10:52:24;;;;;;;;;;;19.80;57.40;;;;;;5122634;28;20270;-70
2023/10/25 10:54:49;;;;;;;;;;;19.60;57.60;;;;;;5088776;28;20007;-70
2023/10/25 10:57:16;;;;;;;;;;;19.40;57.90;;;;;;5122847;28;19962;-71
2023/10/25 10:59:45;;;;;;;;;;;19.30;58.20;;;;;;5090485;28;19916;-70
2023/10/25 11:02:12;;;;;;;;;;;19.20;58.50;;;;;;5105877;28;20235;-71
2023/10/25 11:04:41;;;;;;;;;;;19.00;58.70;;;;;;5088584;28;20019;-71
2023/10/25 11:07:06;;;;;;;;;;;18.90;59.10;;;;;;5108310;28;19916;-71
2023/10/25 11:09:32;;;;;;;;;;;18.70;59.50;;;;;;5104202;28;20275;-71
2023/10/25 11:12:06;;;;;;;;;;;18.70;59.70;;;;;;5107294;28;19967;-71
2023/10/25 11:14:48;;;;;;;;;;;18.60;59.90;;;;;;5108504;28;20343;-71
2023/10/25 11:17:13;;;;;;;;;;;18.50;60.10;;;;;;5108250;28;20355;-70
2023/10/25 11:19:40;;;;;;;;;;;18.40;60.40;;;;;;5108001;28;19916;-71
2023/10/25 11:22:06;;;;;;;;;;;18.30;61.40;;;;;;5108140;28;19972;-71
2023/10/25 11:24:33;;;;;;;;;;;18.20;60.80;;;;;;5102310;28;19995;-71
2023/10/25 11:27:00;;;;;;;;;;;18.10;61.00;;;;;;5131334;27;19923;-70
2023/10/25 11:29:26;;;;;;;;;;;18.10;61.20;;;;;;5095683;28;19920;-70
2023/10/25 11:31:55;;;;;;;;;;;18.00;61.40;;;;;;5106760;28;20327;-70
2023/10/25 11:34:21;;;;;;;;;;;17.90;61.40;;;;;;5141018;27;19920;-71
2023/10/25 11:36:47;;;;;;;;;;;17.90;61.50;;;;;;5107423;28;19920;-71
2023/10/25 11:39:13;;;;;;;;;;;17.80;61.60;;;;;;5107510;28;19971;-70
2023/10/25 11:41:39;;;;;;;;;;;17.80;61.70;;;;;;5107235;28;19974;-71
2023/10/25 11:44:04;;;;;;;;;;;17.70;61.80;;;;;;5107364;28;20430;-70
2023/10/25 11:46:34;;;;;;;;;;;17.70;61.90;;;;;;5107856;28;19927;-70
2023/10/25 11:49:00;;;;;;;;;;;17.70;62.00;;;;;;5108929;28;19931;-70
2023/10/25 11:51:26;;;;;;;;;;;17.60;62.10;;;;;;5107624;28;19940;-70
2023/10/25 11:53:51;;;;;;;;;;;17.60;62.20;;;;;;5094230;28;19928;-70
2023/10/25 11:56:21;;;;;;;;;;;17.50;62.20;;;;;;5095340;28;19947;-70
2023/10/25 11:58:47;;;;;;;;;;;17.50;62.40;;;;;;5094208;28;20403;-70
2023/10/25 12:01:13;;;;;;;;;;;17.50;62.50;;;;;;5095271;28;19927;-70
2023/10/25 12:03:39;;;;;;;;;;;17.40;62.60;;;;;;5093668;28;19965;-70
2023/10/25 12:06:04;;;;;;;;;;;17.30;62.70;;;;;;5094033;28;20014;-71
2023/10/25 12:08:30;;;;;;;;;;;17.30;62.80;;;;;;5095057;28;19920;-70
2023/10/25 12:10:55;;;;;;;;;;;17.30;63.00;;;;;;5093923;28;20367;-70
2023/10/25 12:13:21;;;;;;;;;;;17.20;63.00;;;;;;5093786;28;20371;-70
2023/10/25 12:15:46;;;;;;;;;;;17.20;63.20;;;;;;5094009;28;19920;-71
2023/10/25 12:18:12;;;;;;;;;;;17.10;63.30;;;;;;5094727;28;20002;-71
2023/10/25 12:20:37;;;;;;;;;;;17.00;63.40;;;;;;5093885;28;19927;-71
2023/10/25 12:23:03;;;;;;;;;;;17.00;63.60;;;;;;5093670;28;20382;-71
2023/10/25 12:25:28;;;;;;;;;;;16.90;63.70;;;;;;5093571;28;19956;-70
2023/10/25 12:27:54;;;;;;;;;;;16.90;63.90;;;;;;5093774;28;19981;-70
2023/10/25 12:30:19;;;;;;;;;;;16.80;64.00;;;;;;5093624;28;20019;-71
2023/10/25 12:32:45;;;;;;;;;;;16.80;64.20;;;;;;5093344;28;19920;-71
2023/10/25 12:35:11;;;;;;;;;;;16.70;64.40;;;;;;5093574;28;19928;-70
2023/10/25 12:37:37;;;;;;;;;;;16.60;64.50;;;;;;5093305;28;19955;-71
2023/10/25 12:40:04;;;;;;;;;;;16.60;64.60;;;;;;5094591;28;20022;-70
2023/10/25 12:42:30;;;;;;;;;;;16.60;64.90;;;;;;5092918;28;20030;-70
2023/10/25 12:44:55;;;;;;;;;;;16.50;64.90;;;;;;5094429;28;20015;-70
2023/10/25 12:47:22;;;;;;;;;;;16.50;65.10;;;;;;5093087;28;19928;-70
2023/10/25 12:49:49;;;;;;;;;;;16.40;65.20;;;;;;5093204;28;19951;-70
2023/10/25 12:52:14;;;;;;;;;;;16.40;65.30;;;;;;5093331;28;19966;-70
2023/10/25 12:54:40;;;;;;;;;;;16.40;65.40;;;;;;5093208;28;19920;-71
2023/10/25 12:57:05;;;;;;;;;;;16.30;65.50;;;;;;5092928;28;20295;-70
2023/10/25 12:59:31;;;;;;;;;;;16.30;65.70;;;;;;5094125;28;20029;-70
2023/10/25 13:01:56;;;;;;;;;;;16.20;65.80;;;;;;5094011;28;19923;-70
2023/10/25 13:04:22;;;;;;;;;;;16.20;65.90;;;;;;5091621;28;20440;-70
2023/10/25 13:06:48;;;;;;;;;;;16.20;66.00;;;;;;5093064;28;19920;-70
2023/10/25 13:09:13;;;;;;;;;;;16.10;66.00;;;;;;5093977;28;20009;-71
2023/10/25 13:11:39;;;;;;;;;;;16.10;66.20;;;;;;5092654;28;20007;-71
2023/10/25 13:14:04;;;;;;;;;;;16.10;66.30;;;;;;5127111;27;19967;-71
2023/10/25 13:16:31;;;;;;;;;;;16.10;66.40;;;;;;5092572;28;20271;-70
2023/10/25 13:18:57;;;;;;;;;;;16.00;66.40;;;;;;5093693;28;19952;-71
2023/10/25 13:21:22;;;;;;;;;;;16.00;66.50;;;;;;5092295;28;19975;-71
2023/10/25 13:23:50;;;;;;;;;;;16.00;66.60;;;;;;5092383;28;20051;-71
2023/10/25 13:26:16;;;;;;;;;;;15.90;66.70;;;;;;5092569;28;19920;-71
2023/10/25 13:28:41;;;;;;;;;;;15.90;66.70;;;;;;5093532;28;19920;-70
2023/10/25 13:31:07;;;;;;;;;;;15.90;66.90;;;;;;5093456;28;19924;-71
2023/10/25 13:33:33;;;;;;;;;;;15.90;67.00;;;;;;5093470;28;20335;-71
2023/10/25 13:35:59;;;;;;;;;;;15.90;67.00;;;;;;5093305;28;19971;-71
2023/10/25 13:38:24;;;;;;;;;;;15.90;67.10;;;;;;5092140;28;19924;-70
2023/10/25 13:40:50;;;;;;;;;;;15.90;67.10;;;;;;5091845;28;20015;-70
2023/10/25 13:43:15;;;;;;;;;;;15.90;67.20;;;;;;5092285;28;20287;-70
2023/10/25 13:45:42;;;;;;;;;;;15.90;67.20;;;;;;5093057;28;20018;-70
2023/10/25 13:48:07;;;;;;;;;;;15.90;67.20;;;;;;5093210;28;19924;-70
2023/10/25 13:50:32;;;;;;;;;;;15.90;67.30;;;;;;5091725;28;19927;-70
2023/10/25 13:52:58;;;;;;;;;;;15.80;67.30;;;;;;5092071;28;20032;-70
2023/10/25 13:55:23;;;;;;;;;;;15.80;67.30;;;;;;5091859;28;19926;-70
2023/10/25 13:57:49;;;;;;;;;;;15.80;67.40;;;;;;5091990;28;19920;-70
2023/10/25 14:00:16;;;;;;;;;;;15.80;67.40;;;;;;5092913;28;19965;-71
2023/10/25 14:02:41;;;;;;;;;;;15.80;67.40;;;;;;5091886;28;19924;-71
2023/10/25 14:05:07;;;;;;;;;;;15.80;67.50;;;;;;5091612;28;19924;-70
2023/10/25 14:07:32;;;;;;;;;;;15.80;67.50;;;;;;5091824;28;19927;-70
2023/10/25 14:09:58;;;;;;;;;;;15.80;67.60;;;;;;5091856;28;19924;-70
2023/10/25 14:12:23;;;;;;;;;;;15.70;67.60;;;;;;5091808;28;19920;-70
2023/10/25 14:14:49;;;;;;;;;;;15.70;67.60;;;;;;5091454;28;19924;-70
2023/10/25 14:17:14;;;;;;;;;;;15.70;67.60;;;;;;5091508;28;19927;-71
2023/10/25 14:19:40;;;;;;;;;;;15.70;67.70;;;;;;5092791;28;19973;-71
2023/10/25 14:22:07;;;;;;;;;;;15.70;67.80;;;;;;5091191;28;20299;-71
2023/10/25 14:24:32;;;;;;;;;;;15.70;67.80;;;;;;5091701;28;19920;-71
2023/10/25 14:26:58;;;;;;;;;;;15.60;67.80;;;;;;5091280;28;19920;-70
2023/10/25 14:29:23;;;;;;;;;;;15.60;67.90;;;;;;5092612;28;20280;-71